sensor_id;sensor_type;location;lat;lon;timestamp;P1;durP1;ratioP1;P2;durP2;ratioP2
21206;SDS011;10761;48.532;8.026;2023-12-20T00:00:34;2.58;;;2.08;;
21206;SDS011;10761;48.532;8.026;2023-12-20T00:03:02;3.08;;;2.33;;
21206;SDS011;10761;48.532;8.026;2023-12-20T00:05:28;2.50;;;2.13;;
21206;SDS011;10761;48.532;8.026;2023-12-20T00:07:53;2.63;;;2.30;;
21206;SDS011;10761;48.532;8.026;2023-12-20T00:10:19;3.10;;;2.53;;
21206;SDS011;10761;48.532;8.026;2023-12-20T00:12:45;2.30;;;2.10;;
21206;SDS011;10761;48.532;8.026;2023-12-20T00:15:10;3.70;;;2.33;;
21206;SDS011;10761;48.532;8.026;2023-12-20T00:17:36;2.70;;;2.50;;
21206;SDS011;10761;48.532;8.026;2023-12-20T00:20:05;2.38;;;2.17;;
21206;SDS011;10761;48.532;8.026;2023-12-20T00:22:32;2.55;;;2.33;;
21206;SDS011;10761;48.532;8.026;2023-12-20T00:24:57;2.97;;;2.15;;
21206;SDS011;10761;48.532;8.026;2023-12-20T00:27:23;2.35;;;2.15;;
21206;SDS011;10761;48.532;8.026;2023-12-20T00:29:48;2.15;;;1.95;;
21206;SDS011;10761;48.532;8.026;2023-12-20T00:32:15;2.28;;;2.03;;
21206;SDS011;10761;48.532;8.026;2023-12-20T00:34:41;2.40;;;2.20;;
21206;SDS011;10761;48.532;8.026;2023-12-20T00:37:07;3.17;;;2.05;;
21206;SDS011;10761;48.532;8.026;2023-12-20T00:39:33;3.13;;;2.22;;
21206;SDS011;10761;48.532;8.026;2023-12-20T00:41:58;2.72;;;1.75;;
21206;SDS011;10761;48.532;8.026;2023-12-20T00:44:24;2.20;;;2.00;;
21206;SDS011;10761;48.532;8.026;2023-12-20T00:46:49;3.85;;;2.10;;
21206;SDS011;10761;48.532;8.026;2023-12-20T00:49:15;2.80;;;1.85;;
21206;SDS011;10761;48.532;8.026;2023-12-20T00:51:40;2.20;;;2.00;;
21206;SDS011;10761;48.532;8.026;2023-12-20T00:54:06;2.00;;;1.73;;
21206;SDS011;10761;48.532;8.026;2023-12-20T00:56:31;2.30;;;1.90;;
21206;SDS011;10761;48.532;8.026;2023-12-20T00:58:57;5.10;;;1.88;;
21206;SDS011;10761;48.532;8.026;2023-12-20T01:01:23;2.35;;;2.10;;
21206;SDS011;10761;48.532;8.026;2023-12-20T01:03:48;2.65;;;2.42;;
21206;SDS011;10761;48.532;8.026;2023-12-20T01:06:16;3.22;;;1.98;;
21206;SDS011;10761;48.532;8.026;2023-12-20T01:08:42;3.33;;;2.47;;
21206;SDS011;10761;48.532;8.026;2023-12-20T01:11:07;3.38;;;2.63;;
21206;SDS011;10761;48.532;8.026;2023-12-20T01:13:33;3.17;;;2.85;;
21206;SDS011;10761;48.532;8.026;2023-12-20T01:15:59;2.33;;;2.13;;
21206;SDS011;10761;48.532;8.026;2023-12-20T01:18:24;3.22;;;2.55;;
21206;SDS011;10761;48.532;8.026;2023-12-20T01:20:50;2.97;;;2.60;;
21206;SDS011;10761;48.532;8.026;2023-12-20T01:23:16;3.17;;;2.65;;
21206;SDS011;10761;48.532;8.026;2023-12-20T01:25:41;3.45;;;2.58;;
21206;SDS011;10761;48.532;8.026;2023-12-20T01:28:07;3.78;;;2.60;;
21206;SDS011;10761;48.532;8.026;2023-12-20T01:30:32;3.97;;;2.80;;
21206;SDS011;10761;48.532;8.026;2023-12-20T01:32:59;2.97;;;2.67;;
21206;SDS011;10761;48.532;8.026;2023-12-20T01:35:25;2.88;;;2.35;;
21206;SDS011;10761;48.532;8.026;2023-12-20T01:37:51;3.47;;;2.10;;
21206;SDS011;10761;48.532;8.026;2023-12-20T01:40:16;3.33;;;2.22;;
21206;SDS011;10761;48.532;8.026;2023-12-20T01:42:42;2.65;;;2.45;;
21206;SDS011;10761;48.532;8.026;2023-12-20T01:45:08;2.92;;;2.60;;
21206;SDS011;10761;48.532;8.026;2023-12-20T01:47:33;5.45;;;2.45;;
21206;SDS011;10761;48.532;8.026;2023-12-20T01:50:00;3.15;;;2.35;;
21206;SDS011;10761;48.532;8.026;2023-12-20T01:52:28;3.15;;;2.03;;
21206;SDS011;10761;48.532;8.026;2023-12-20T01:54:54;3.40;;;2.17;;
21206;SDS011;10761;48.532;8.026;2023-12-20T01:57:26;3.28;;;1.95;;
21206;SDS011;10761;48.532;8.026;2023-12-20T01:59:52;2.03;;;1.83;;
21206;SDS011;10761;48.532;8.026;2023-12-20T02:02:18;1.98;;;1.70;;
21206;SDS011;10761;48.532;8.026;2023-12-20T02:04:44;3.13;;;2.05;;
21206;SDS011;10761;48.532;8.026;2023-12-20T02:07:10;2.35;;;1.80;;
21206;SDS011;10761;48.532;8.026;2023-12-20T02:09:36;1.65;;;1.55;;
21206;SDS011;10761;48.532;8.026;2023-12-20T02:12:03;1.52;;;1.42;;
21206;SDS011;10761;48.532;8.026;2023-12-20T02:14:29;2.33;;;1.38;;
21206;SDS011;10761;48.532;8.026;2023-12-20T02:16:55;2.35;;;1.40;;
21206;SDS011;10761;48.532;8.026;2023-12-20T02:19:20;1.58;;;1.25;;
21206;SDS011;10761;48.532;8.026;2023-12-20T02:21:46;1.88;;;1.30;;
21206;SDS011;10761;48.532;8.026;2023-12-20T02:24:11;1.20;;;1.10;;
21206;SDS011;10761;48.532;8.026;2023-12-20T02:26:37;2.60;;;1.27;;
21206;SDS011;10761;48.532;8.026;2023-12-20T02:29:03;2.15;;;0.88;;
21206;SDS011;10761;48.532;8.026;2023-12-20T02:31:29;1.38;;;1.27;;
21206;SDS011;10761;48.532;8.026;2023-12-20T02:33:54;1.48;;;1.10;;
21206;SDS011;10761;48.532;8.026;2023-12-20T02:36:20;1.33;;;1.20;;
21206;SDS011;10761;48.532;8.026;2023-12-20T02:38:45;1.63;;;1.10;;
21206;SDS011;10761;48.532;8.026;2023-12-20T02:41:11;1.83;;;1.10;;
21206;SDS011;10761;48.532;8.026;2023-12-20T02:43:37;1.30;;;1.17;;
21206;SDS011;10761;48.532;8.026;2023-12-20T02:46:03;1.27;;;1.08;;
21206;SDS011;10761;48.532;8.026;2023-12-20T02:48:28;1.08;;;0.98;;
21206;SDS011;10761;48.532;8.026;2023-12-20T02:50:54;1.20;;;1.10;;
21206;SDS011;10761;48.532;8.026;2023-12-20T02:53:20;1.42;;;1.00;;
21206;SDS011;10761;48.532;8.026;2023-12-20T02:55:45;1.13;;;1.02;;
21206;SDS011;10761;48.532;8.026;2023-12-20T02:58:11;1.10;;;0.95;;
21206;SDS011;10761;48.532;8.026;2023-12-20T03:00:36;2.58;;;0.88;;
21206;SDS011;10761;48.532;8.026;2023-12-20T03:03:02;1.10;;;1.00;;
21206;SDS011;10761;48.532;8.026;2023-12-20T03:05:28;1.60;;;0.80;;
21206;SDS011;10761;48.532;8.026;2023-12-20T03:07:53;1.27;;;1.02;;
21206;SDS011;10761;48.532;8.026;2023-12-20T03:10:19;1.23;;;1.13;;
21206;SDS011;10761;48.532;8.026;2023-12-20T03:12:44;1.15;;;1.00;;
21206;SDS011;10761;48.532;8.026;2023-12-20T03:15:10;2.05;;;1.10;;
21206;SDS011;10761;48.532;8.026;2023-12-20T03:17:36;0.80;;;0.80;;
21206;SDS011;10761;48.532;8.026;2023-12-20T03:20:01;1.45;;;1.30;;
21206;SDS011;10761;48.532;8.026;2023-12-20T03:22:27;1.83;;;1.20;;
21206;SDS011;10761;48.532;8.026;2023-12-20T03:24:53;1.00;;;0.95;;
21206;SDS011;10761;48.532;8.026;2023-12-20T03:27:18;1.10;;;1.00;;
21206;SDS011;10761;48.532;8.026;2023-12-20T03:29:44;0.82;;;0.82;;
21206;SDS011;10761;48.532;8.026;2023-12-20T03:32:09;0.90;;;0.90;;
21206;SDS011;10761;48.532;8.026;2023-12-20T03:34:35;1.10;;;1.00;;
21206;SDS011;10761;48.532;8.026;2023-12-20T03:37:01;1.10;;;1.00;;
21206;SDS011;10761;48.532;8.026;2023-12-20T03:39:26;0.90;;;0.90;;
21206;SDS011;10761;48.532;8.026;2023-12-20T03:41:52;1.10;;;1.00;;
21206;SDS011;10761;48.532;8.026;2023-12-20T03:44:17;0.80;;;0.73;;
21206;SDS011;10761;48.532;8.026;2023-12-20T03:46:43;1.38;;;0.95;;
21206;SDS011;10761;48.532;8.026;2023-12-20T03:49:10;1.05;;;1.00;;
21206;SDS011;10761;48.532;8.026;2023-12-20T03:51:36;1.40;;;0.90;;
21206;SDS011;10761;48.532;8.026;2023-12-20T03:54:02;0.90;;;0.90;;
21206;SDS011;10761;48.532;8.026;2023-12-20T03:56:28;1.45;;;1.00;;
21206;SDS011;10761;48.532;8.026;2023-12-20T03:58:53;1.42;;;0.80;;
21206;SDS011;10761;48.532;8.026;2023-12-20T04:01:19;0.80;;;0.80;;
21206;SDS011;10761;48.532;8.026;2023-12-20T04:03:44;1.33;;;0.80;;
21206;SDS011;10761;48.532;8.026;2023-12-20T04:06:10;0.70;;;0.70;;
21206;SDS011;10761;48.532;8.026;2023-12-20T04:08:41;1.55;;;1.10;;
21206;SDS011;10761;48.532;8.026;2023-12-20T04:11:06;0.73;;;0.73;;
21206;SDS011;10761;48.532;8.026;2023-12-20T04:13:32;0.68;;;0.60;;
21206;SDS011;10761;48.532;8.026;2023-12-20T04:15:57;1.00;;;0.80;;
21206;SDS011;10761;48.532;8.026;2023-12-20T04:18:23;0.80;;;0.80;;
21206;SDS011;10761;48.532;8.026;2023-12-20T04:20:48;0.90;;;0.82;;
21206;SDS011;10761;48.532;8.026;2023-12-20T04:23:14;0.95;;;0.77;;
21206;SDS011;10761;48.532;8.026;2023-12-20T04:25:40;0.65;;;0.65;;
21206;SDS011;10761;48.532;8.026;2023-12-20T04:28:06;0.57;;;0.50;;
21206;SDS011;10761;48.532;8.026;2023-12-20T04:30:31;0.52;;;0.52;;
21206;SDS011;10761;48.532;8.026;2023-12-20T04:32:57;0.63;;;0.60;;
21206;SDS011;10761;48.532;8.026;2023-12-20T04:35:22;0.68;;;0.65;;
21206;SDS011;10761;48.532;8.026;2023-12-20T04:37:48;0.85;;;0.60;;
21206;SDS011;10761;48.532;8.026;2023-12-20T04:40:14;0.60;;;0.60;;
21206;SDS011;10761;48.532;8.026;2023-12-20T04:42:40;0.50;;;0.50;;
21206;SDS011;10761;48.532;8.026;2023-12-20T04:45:06;1.25;;;0.60;;
21206;SDS011;10761;48.532;8.026;2023-12-20T04:47:32;0.50;;;0.50;;
21206;SDS011;10761;48.532;8.026;2023-12-20T04:49:57;0.50;;;0.50;;
21206;SDS011;10761;48.532;8.026;2023-12-20T04:52:23;0.50;;;0.50;;
21206;SDS011;10761;48.532;8.026;2023-12-20T04:54:48;1.25;;;0.70;;
21206;SDS011;10761;48.532;8.026;2023-12-20T04:57:14;0.82;;;0.60;;
21206;SDS011;10761;48.532;8.026;2023-12-20T04:59:39;0.43;;;0.43;;
21206;SDS011;10761;48.532;8.026;2023-12-20T05:02:06;0.50;;;0.50;;
21206;SDS011;10761;48.532;8.026;2023-12-20T05:04:32;0.65;;;0.55;;
21206;SDS011;10761;48.532;8.026;2023-12-20T05:06:57;0.70;;;0.70;;
21206;SDS011;10761;48.532;8.026;2023-12-20T05:09:23;1.40;;;1.00;;
21206;SDS011;10761;48.532;8.026;2023-12-20T05:11:48;0.80;;;0.70;;
21206;SDS011;10761;48.532;8.026;2023-12-20T05:14:14;0.77;;;0.70;;
21206;SDS011;10761;48.532;8.026;2023-12-20T05:16:40;0.93;;;0.60;;
21206;SDS011;10761;48.532;8.026;2023-12-20T05:19:05;0.70;;;0.70;;
21206;SDS011;10761;48.532;8.026;2023-12-20T05:21:31;1.17;;;0.60;;
21206;SDS011;10761;48.532;8.026;2023-12-20T05:23:58;0.82;;;0.63;;
21206;SDS011;10761;48.532;8.026;2023-12-20T05:26:24;0.70;;;0.70;;
21206;SDS011;10761;48.532;8.026;2023-12-20T05:28:49;1.05;;;0.80;;
21206;SDS011;10761;48.532;8.026;2023-12-20T05:31:15;0.80;;;0.70;;
21206;SDS011;10761;48.532;8.026;2023-12-20T05:33:40;0.90;;;0.90;;
21206;SDS011;10761;48.532;8.026;2023-12-20T05:36:06;1.08;;;0.88;;
21206;SDS011;10761;48.532;8.026;2023-12-20T05:38:36;1.50;;;0.90;;
21206;SDS011;10761;48.532;8.026;2023-12-20T05:41:02;0.93;;;0.93;;
21206;SDS011;10761;48.532;8.026;2023-12-20T05:43:27;2.05;;;1.00;;
21206;SDS011;10761;48.532;8.026;2023-12-20T05:45:53;1.20;;;1.10;;
21206;SDS011;10761;48.532;8.026;2023-12-20T05:48:18;1.10;;;0.98;;
21206;SDS011;10761;48.532;8.026;2023-12-20T05:50:44;1.08;;;0.98;;
21206;SDS011;10761;48.532;8.026;2023-12-20T05:53:09;1.20;;;1.10;;
21206;SDS011;10761;48.532;8.026;2023-12-20T05:55:35;0.90;;;0.90;;
21206;SDS011;10761;48.532;8.026;2023-12-20T05:58:00;1.70;;;1.00;;
21206;SDS011;10761;48.532;8.026;2023-12-20T06:00:26;1.20;;;1.10;;
21206;SDS011;10761;48.532;8.026;2023-12-20T06:02:52;4.85;;;3.60;;
21206;SDS011;10761;48.532;8.026;2023-12-20T06:05:17;2.13;;;1.75;;
21206;SDS011;10761;48.532;8.026;2023-12-20T06:07:43;1.25;;;1.15;;
21206;SDS011;10761;48.532;8.026;2023-12-20T06:10:09;1.80;;;1.15;;
21206;SDS011;10761;48.532;8.026;2023-12-20T06:12:35;1.67;;;1.05;;
21206;SDS011;10761;48.532;8.026;2023-12-20T06:15:02;1.27;;;1.17;;
21206;SDS011;10761;48.532;8.026;2023-12-20T06:17:27;1.67;;;1.58;;
21206;SDS011;10761;48.532;8.026;2023-12-20T06:19:55;2.40;;;2.20;;
21206;SDS011;10761;48.532;8.026;2023-12-20T06:22:21;4.85;;;2.60;;
21206;SDS011;10761;48.532;8.026;2023-12-20T06:24:46;2.42;;;2.20;;
21206;SDS011;10761;48.532;8.026;2023-12-20T06:27:12;2.75;;;2.30;;
21206;SDS011;10761;48.532;8.026;2023-12-20T06:29:38;1.88;;;1.73;;
21206;SDS011;10761;48.532;8.026;2023-12-20T06:32:04;1.50;;;1.40;;
21206;SDS011;10761;48.532;8.026;2023-12-20T06:34:29;1.08;;;1.08;;
21206;SDS011;10761;48.532;8.026;2023-12-20T06:36:55;1.23;;;1.13;;
21206;SDS011;10761;48.532;8.026;2023-12-20T06:39:20;1.90;;;1.00;;
21206;SDS011;10761;48.532;8.026;2023-12-20T06:41:46;1.88;;;1.10;;
21206;SDS011;10761;48.532;8.026;2023-12-20T06:44:12;2.15;;;1.35;;
21206;SDS011;10761;48.532;8.026;2023-12-20T06:46:37;1.40;;;1.30;;
21206;SDS011;10761;48.532;8.026;2023-12-20T06:49:03;1.27;;;1.17;;
21206;SDS011;10761;48.532;8.026;2023-12-20T06:51:28;1.33;;;1.05;;
21206;SDS011;10761;48.532;8.026;2023-12-20T06:53:55;2.55;;;1.10;;
21206;SDS011;10761;48.532;8.026;2023-12-20T06:56:21;1.55;;;1.17;;
21206;SDS011;10761;48.532;8.026;2023-12-20T06:58:47;1.20;;;1.08;;
21206;SDS011;10761;48.532;8.026;2023-12-20T07:01:15;1.92;;;1.00;;
21206;SDS011;10761;48.532;8.026;2023-12-20T07:03:41;0.82;;;0.82;;
21206;SDS011;10761;48.532;8.026;2023-12-20T07:06:07;1.50;;;1.20;;
21206;SDS011;10761;48.532;8.026;2023-12-20T07:08:33;1.00;;;0.90;;
21206;SDS011;10761;48.532;8.026;2023-12-20T07:10:59;1.13;;;1.00;;
21206;SDS011;10761;48.532;8.026;2023-12-20T07:13:25;1.30;;;1.20;;
21206;SDS011;10761;48.532;8.026;2023-12-20T07:15:50;2.50;;;1.85;;
21206;SDS011;10761;48.532;8.026;2023-12-20T07:18:16;6.18;;;2.25;;
21206;SDS011;10761;48.532;8.026;2023-12-20T07:20:42;3.10;;;2.20;;
21206;SDS011;10761;48.532;8.026;2023-12-20T07:23:08;2.22;;;2.00;;
21206;SDS011;10761;48.532;8.026;2023-12-20T07:25:34;1.80;;;1.70;;
21206;SDS011;10761;48.532;8.026;2023-12-20T07:27:59;2.95;;;2.10;;
21206;SDS011;10761;48.532;8.026;2023-12-20T07:30:25;1.75;;;1.65;;
21206;SDS011;10761;48.532;8.026;2023-12-20T07:32:50;2.10;;;1.90;;
21206;SDS011;10761;48.532;8.026;2023-12-20T07:35:17;2.83;;;2.10;;
21206;SDS011;10761;48.532;8.026;2023-12-20T07:37:43;3.13;;;2.30;;
21206;SDS011;10761;48.532;8.026;2023-12-20T07:40:09;5.25;;;3.75;;
21206;SDS011;10761;48.532;8.026;2023-12-20T07:42:35;4.53;;;3.20;;
21206;SDS011;10761;48.532;8.026;2023-12-20T07:45:00;2.78;;;2.40;;
21206;SDS011;10761;48.532;8.026;2023-12-20T07:47:26;3.50;;;2.63;;
21206;SDS011;10761;48.532;8.026;2023-12-20T07:49:51;4.50;;;2.97;;
21206;SDS011;10761;48.532;8.026;2023-12-20T07:52:17;3.22;;;2.72;;
21206;SDS011;10761;48.532;8.026;2023-12-20T07:54:45;3.75;;;2.80;;
21206;SDS011;10761;48.532;8.026;2023-12-20T07:57:11;4.82;;;3.67;;
21206;SDS011;10761;48.532;8.026;2023-12-20T07:59:37;7.13;;;3.80;;
21206;SDS011;10761;48.532;8.026;2023-12-20T08:02:02;4.25;;;3.85;;
21206;SDS011;10761;48.532;8.026;2023-12-20T08:04:28;5.38;;;4.10;;
21206;SDS011;10761;48.532;8.026;2023-12-20T08:06:54;5.72;;;4.22;;
21206;SDS011;10761;48.532;8.026;2023-12-20T08:09:19;6.75;;;4.45;;
21206;SDS011;10761;48.532;8.026;2023-12-20T08:11:45;5.28;;;4.43;;
21206;SDS011;10761;48.532;8.026;2023-12-20T08:14:14;7.45;;;4.72;;
21206;SDS011;10761;48.532;8.026;2023-12-20T08:16:40;5.60;;;4.47;;
21206;SDS011;10761;48.532;8.026;2023-12-20T08:19:06;7.30;;;5.30;;
21206;SDS011;10761;48.532;8.026;2023-12-20T08:21:31;5.47;;;4.63;;
21206;SDS011;10761;48.532;8.026;2023-12-20T08:23:57;7.45;;;5.05;;
21206;SDS011;10761;48.532;8.026;2023-12-20T08:26:23;8.18;;;5.72;;
21206;SDS011;10761;48.532;8.026;2023-12-20T08:28:49;6.63;;;5.60;;
21206;SDS011;10761;48.532;8.026;2023-12-20T08:31:15;6.30;;;4.40;;
21206;SDS011;10761;48.532;8.026;2023-12-20T08:33:45;4.70;;;4.22;;
21206;SDS011;10761;48.532;8.026;2023-12-20T08:36:12;6.55;;;4.57;;
21206;SDS011;10761;48.532;8.026;2023-12-20T08:38:38;6.15;;;4.35;;
21206;SDS011;10761;48.532;8.026;2023-12-20T08:41:04;5.10;;;4.35;;
21206;SDS011;10761;48.532;8.026;2023-12-20T08:43:30;5.22;;;4.07;;
21206;SDS011;10761;48.532;8.026;2023-12-20T08:45:56;6.63;;;3.88;;
21206;SDS011;10761;48.532;8.026;2023-12-20T08:48:22;7.10;;;3.97;;
21206;SDS011;10761;48.532;8.026;2023-12-20T08:50:48;5.50;;;4.00;;
21206;SDS011;10761;48.532;8.026;2023-12-20T08:53:15;7.45;;;4.78;;
21206;SDS011;10761;48.532;8.026;2023-12-20T08:55:41;7.40;;;4.65;;
21206;SDS011;10761;48.532;8.026;2023-12-20T08:58:07;9.15;;;4.88;;
21206;SDS011;10761;48.532;8.026;2023-12-20T09:00:33;5.18;;;4.68;;
21206;SDS011;10761;48.532;8.026;2023-12-20T09:02:59;8.43;;;5.03;;
21206;SDS011;10761;48.532;8.026;2023-12-20T09:05:26;5.65;;;4.38;;
21206;SDS011;10761;48.532;8.026;2023-12-20T09:07:52;4.70;;;3.80;;
21206;SDS011;10761;48.532;8.026;2023-12-20T09:10:17;4.45;;;3.28;;
21206;SDS011;10761;48.532;8.026;2023-12-20T09:12:47;6.38;;;3.58;;
21206;SDS011;10761;48.532;8.026;2023-12-20T09:15:15;6.43;;;3.65;;
21206;SDS011;10761;48.532;8.026;2023-12-20T09:17:41;6.13;;;3.75;;
21206;SDS011;10761;48.532;8.026;2023-12-20T09:20:07;5.78;;;3.20;;
21206;SDS011;10761;48.532;8.026;2023-12-20T09:22:33;6.55;;;3.00;;
21206;SDS011;10761;48.532;8.026;2023-12-20T09:24:59;6.28;;;2.40;;
21206;SDS011;10761;48.532;8.026;2023-12-20T09:27:25;6.05;;;3.13;;
21206;SDS011;10761;48.532;8.026;2023-12-20T09:29:51;6.45;;;2.70;;
21206;SDS011;10761;48.532;8.026;2023-12-20T09:32:18;3.97;;;2.70;;
21206;SDS011;10761;48.532;8.026;2023-12-20T09:34:45;5.68;;;2.10;;
21206;SDS011;10761;48.532;8.026;2023-12-20T09:37:12;6.90;;;2.15;;
21206;SDS011;10761;48.532;8.026;2023-12-20T09:39:38;5.82;;;2.10;;
21206;SDS011;10761;48.532;8.026;2023-12-20T09:42:04;6.38;;;1.42;;
21206;SDS011;10761;48.532;8.026;2023-12-20T09:44:31;2.97;;;1.27;;
21206;SDS011;10761;48.532;8.026;2023-12-20T09:46:59;3.55;;;1.10;;
21206;SDS011;10761;48.532;8.026;2023-12-20T09:49:28;5.35;;;1.30;;
21206;SDS011;10761;48.532;8.026;2023-12-20T09:51:55;4.15;;;1.20;;
21206;SDS011;10761;48.532;8.026;2023-12-20T09:54:21;4.18;;;1.35;;
21206;SDS011;10761;48.532;8.026;2023-12-20T09:56:48;4.97;;;1.90;;
21206;SDS011;10761;48.532;8.026;2023-12-20T09:59:14;6.68;;;1.50;;
21206;SDS011;10761;48.532;8.026;2023-12-20T10:01:40;2.92;;;1.30;;
21206;SDS011;10761;48.532;8.026;2023-12-20T10:04:10;6.88;;;1.50;;
21206;SDS011;10761;48.532;8.026;2023-12-20T10:06:41;7.10;;;1.40;;
21206;SDS011;10761;48.532;8.026;2023-12-20T10:09:08;6.32;;;1.60;;
21206;SDS011;10761;48.532;8.026;2023-12-20T10:11:35;5.10;;;2.15;;
21206;SDS011;10761;48.532;8.026;2023-12-20T10:14:05;5.82;;;1.60;;
21206;SDS011;10761;48.532;8.026;2023-12-20T10:16:31;5.93;;;1.30;;
21206;SDS011;10761;48.532;8.026;2023-12-20T10:18:58;4.35;;;1.30;;
21206;SDS011;10761;48.532;8.026;2023-12-20T10:21:25;4.88;;;1.50;;
21206;SDS011;10761;48.532;8.026;2023-12-20T10:23:54;2.55;;;1.20;;
21206;SDS011;10761;48.532;8.026;2023-12-20T10:26:21;3.92;;;1.17;;
21206;SDS011;10761;48.532;8.026;2023-12-20T10:28:54;3.35;;;1.40;;
21206;SDS011;10761;48.532;8.026;2023-12-20T10:31:27;6.32;;;1.80;;
21206;SDS011;10761;48.532;8.026;2023-12-20T10:33:57;4.93;;;1.48;;
21206;SDS011;10761;48.532;8.026;2023-12-20T10:36:25;5.95;;;1.40;;
21206;SDS011;10761;48.532;8.026;2023-12-20T10:38:52;3.60;;;1.40;;
21206;SDS011;10761;48.532;8.026;2023-12-20T10:41:19;8.35;;;1.73;;
21206;SDS011;10761;48.532;8.026;2023-12-20T10:43:52;3.53;;;1.55;;
21206;SDS011;10761;48.532;8.026;2023-12-20T10:46:21;6.85;;;1.70;;
21206;SDS011;10761;48.532;8.026;2023-12-20T10:48:47;5.47;;;1.55;;
21206;SDS011;10761;48.532;8.026;2023-12-20T10:51:17;5.50;;;1.70;;
21206;SDS011;10761;48.532;8.026;2023-12-20T10:53:43;4.95;;;2.10;;
21206;SDS011;10761;48.532;8.026;2023-12-20T10:56:12;4.35;;;1.77;;
21206;SDS011;10761;48.532;8.026;2023-12-20T10:58:41;5.88;;;1.42;;
21206;SDS011;10761;48.532;8.026;2023-12-20T11:01:08;6.20;;;1.95;;
21206;SDS011;10761;48.532;8.026;2023-12-20T11:03:35;7.13;;;1.60;;
21206;SDS011;10761;48.532;8.026;2023-12-20T11:11:12;6.65;;;1.70;;
21206;SDS011;10761;48.532;8.026;2023-12-20T11:13:53;8.50;;;2.28;;
21206;SDS011;10761;48.532;8.026;2023-12-20T11:16:23;5.85;;;1.65;;
21206;SDS011;10761;48.532;8.026;2023-12-20T11:18:50;13.68;;;1.90;;
21206;SDS011;10761;48.532;8.026;2023-12-20T11:21:16;5.35;;;1.90;;
21206;SDS011;10761;48.532;8.026;2023-12-20T11:23:42;7.22;;;2.08;;
21206;SDS011;10761;48.532;8.026;2023-12-20T11:26:08;8.73;;;1.50;;
21206;SDS011;10761;48.532;8.026;2023-12-20T11:28:33;4.63;;;1.45;;
21206;SDS011;10761;48.532;8.026;2023-12-20T11:31:00;5.93;;;1.60;;
21206;SDS011;10761;48.532;8.026;2023-12-20T11:33:29;6.25;;;1.63;;
21206;SDS011;10761;48.532;8.026;2023-12-20T11:35:56;6.10;;;1.40;;
21206;SDS011;10761;48.532;8.026;2023-12-20T11:38:22;5.03;;;1.52;;
21206;SDS011;10761;48.532;8.026;2023-12-20T11:40:49;6.75;;;2.45;;
21206;SDS011;10761;48.532;8.026;2023-12-20T11:43:31;8.73;;;1.83;;
21206;SDS011;10761;48.532;8.026;2023-12-20T11:46:03;6.30;;;1.63;;
21206;SDS011;10761;48.532;8.026;2023-12-20T11:48:34;8.20;;;3.03;;
21206;SDS011;10761;48.532;8.026;2023-12-20T11:51:02;7.75;;;1.52;;
21206;SDS011;10761;48.532;8.026;2023-12-20T11:53:29;7.40;;;1.80;;
21206;SDS011;10761;48.532;8.026;2023-12-20T11:55:56;4.38;;;1.30;;
21206;SDS011;10761;48.532;8.026;2023-12-20T11:58:21;6.43;;;1.60;;
21206;SDS011;10761;48.532;8.026;2023-12-20T12:00:48;5.78;;;1.70;;
21206;SDS011;10761;48.532;8.026;2023-12-20T12:03:15;4.80;;;1.73;;
21206;SDS011;10761;48.532;8.026;2023-12-20T12:05:41;5.68;;;1.67;;
21206;SDS011;10761;48.532;8.026;2023-12-20T12:08:06;8.35;;;2.00;;
21206;SDS011;10761;48.532;8.026;2023-12-20T12:10:32;11.68;;;2.08;;
21206;SDS011;10761;48.532;8.026;2023-12-20T12:12:58;5.82;;;1.60;;
21206;SDS011;10761;48.532;8.026;2023-12-20T12:15:25;8.68;;;2.08;;
21206;SDS011;10761;48.532;8.026;2023-12-20T12:17:54;4.63;;;1.63;;
21206;SDS011;10761;48.532;8.026;2023-12-20T12:20:21;6.63;;;1.88;;
21206;SDS011;10761;48.532;8.026;2023-12-20T12:22:56;6.03;;;1.30;;
21206;SDS011;10761;48.532;8.026;2023-12-20T12:25:26;4.43;;;1.55;;
21206;SDS011;10761;48.532;8.026;2023-12-20T12:27:55;6.68;;;1.77;;
21206;SDS011;10761;48.532;8.026;2023-12-20T12:30:22;5.10;;;1.52;;
21206;SDS011;10761;48.532;8.026;2023-12-20T12:32:48;4.53;;;1.80;;
21206;SDS011;10761;48.532;8.026;2023-12-20T12:35:14;6.82;;;1.50;;
21206;SDS011;10761;48.532;8.026;2023-12-20T12:37:40;5.70;;;1.42;;
21206;SDS011;10761;48.532;8.026;2023-12-20T12:40:15;7.43;;;1.60;;
21206;SDS011;10761;48.532;8.026;2023-12-20T12:42:43;7.35;;;1.63;;
21206;SDS011;10761;48.532;8.026;2023-12-20T12:45:09;3.20;;;1.00;;
21206;SDS011;10761;48.532;8.026;2023-12-20T12:47:39;3.95;;;1.42;;
21206;SDS011;10761;48.532;8.026;2023-12-20T12:50:05;11.73;;;1.98;;
21206;SDS011;10761;48.532;8.026;2023-12-20T12:52:30;4.85;;;1.80;;
21206;SDS011;10761;48.532;8.026;2023-12-20T12:54:56;7.68;;;1.73;;
21206;SDS011;10761;48.532;8.026;2023-12-20T12:57:22;11.00;;;2.00;;
21206;SDS011;10761;48.532;8.026;2023-12-20T12:59:49;6.28;;;1.90;;
21206;SDS011;10761;48.532;8.026;2023-12-20T13:02:15;7.28;;;1.92;;
21206;SDS011;10761;48.532;8.026;2023-12-20T13:04:40;5.07;;;1.90;;
21206;SDS011;10761;48.532;8.026;2023-12-20T13:07:07;5.07;;;1.60;;
21206;SDS011;10761;48.532;8.026;2023-12-20T13:09:35;7.78;;;1.98;;
21206;SDS011;10761;48.532;8.026;2023-12-20T13:12:01;14.65;;;2.30;;
21206;SDS011;10761;48.532;8.026;2023-12-20T13:14:28;11.05;;;1.80;;
21206;SDS011;10761;48.532;8.026;2023-12-20T13:16:55;11.98;;;2.08;;
21206;SDS011;10761;48.532;8.026;2023-12-20T13:19:21;10.60;;;2.28;;
21206;SDS011;10761;48.532;8.026;2023-12-20T13:21:46;10.70;;;2.17;;
21206;SDS011;10761;48.532;8.026;2023-12-20T13:24:13;7.05;;;2.00;;
21206;SDS011;10761;48.532;8.026;2023-12-20T13:26:39;4.47;;;1.73;;
21206;SDS011;10761;48.532;8.026;2023-12-20T13:29:04;5.53;;;1.85;;
21206;SDS011;10761;48.532;8.026;2023-12-20T13:31:30;8.80;;;1.63;;
21206;SDS011;10761;48.532;8.026;2023-12-20T13:33:56;6.72;;;2.03;;
21206;SDS011;10761;48.532;8.026;2023-12-20T13:36:21;8.15;;;1.90;;
21206;SDS011;10761;48.532;8.026;2023-12-20T13:38:47;7.97;;;1.58;;
21206;SDS011;10761;48.532;8.026;2023-12-20T13:41:13;7.47;;;2.05;;
21206;SDS011;10761;48.532;8.026;2023-12-20T13:43:38;9.25;;;2.17;;
21206;SDS011;10761;48.532;8.026;2023-12-20T13:46:04;6.88;;;1.90;;
21206;SDS011;10761;48.532;8.026;2023-12-20T13:48:29;7.05;;;2.17;;
21206;SDS011;10761;48.532;8.026;2023-12-20T13:50:55;6.90;;;1.90;;
21206;SDS011;10761;48.532;8.026;2023-12-20T13:53:21;8.70;;;1.90;;
21206;SDS011;10761;48.532;8.026;2023-12-20T13:55:46;9.77;;;1.80;;
21206;SDS011;10761;48.532;8.026;2023-12-20T13:58:12;7.93;;;2.25;;
21206;SDS011;10761;48.532;8.026;2023-12-20T14:00:38;8.23;;;2.03;;
21206;SDS011;10761;48.532;8.026;2023-12-20T14:03:03;6.05;;;2.50;;
21206;SDS011;10761;48.532;8.026;2023-12-20T14:05:29;8.45;;;2.85;;
21206;SDS011;10761;48.532;8.026;2023-12-20T14:07:55;7.25;;;2.60;;
21206;SDS011;10761;48.532;8.026;2023-12-20T14:10:25;4.35;;;1.70;;
21206;SDS011;10761;48.532;8.026;2023-12-20T14:12:54;10.93;;;1.73;;
21206;SDS011;10761;48.532;8.026;2023-12-20T14:15:20;6.20;;;1.80;;
21206;SDS011;10761;48.532;8.026;2023-12-20T14:17:45;7.22;;;2.08;;
21206;SDS011;10761;48.532;8.026;2023-12-20T14:20:11;9.98;;;2.50;;
21206;SDS011;10761;48.532;8.026;2023-12-20T14:22:40;11.40;;;2.22;;
21206;SDS011;10761;48.532;8.026;2023-12-20T14:25:15;11.57;;;2.35;;
21206;SDS011;10761;48.532;8.026;2023-12-20T14:27:41;5.95;;;1.85;;
21206;SDS011;10761;48.532;8.026;2023-12-20T14:30:08;8.30;;;2.10;;
21206;SDS011;10761;48.532;8.026;2023-12-20T14:32:35;9.57;;;2.78;;
21206;SDS011;10761;48.532;8.026;2023-12-20T14:35:04;9.70;;;2.63;;
21206;SDS011;10761;48.532;8.026;2023-12-20T14:37:30;11.18;;;2.63;;
21206;SDS011;10761;48.532;8.026;2023-12-20T14:39:56;7.28;;;1.80;;
21206;SDS011;10761;48.532;8.026;2023-12-20T14:42:21;10.23;;;1.60;;
21206;SDS011;10761;48.532;8.026;2023-12-20T14:44:47;7.38;;;1.65;;
21206;SDS011;10761;48.532;8.026;2023-12-20T14:47:13;15.10;;;4.35;;